Time;durP1;ratioP1;P1;durP2;ratioP2;P2;SDS_P1;SDS_P2;PMS_P1;PMS_P2;Temp;Humidity;BMP_temperature;BMP_pressure;BME280_temperature;BME280_humidity;BME280_pressure;Samples;Min_cycle;Max_cycle;Signal;HPM_P1;HPM_P2
2022/11/29 00:08:42;;;;;;;51.97;15.40;;;;;;;-144.18;100.00;69644.63;31180825;28;20046;-75
2022/11/29 00:23:44;;;;;;;54.10;16.80;;;;;;;-144.18;100.00;69644.63;31223117;28;20068;-76
2022/11/29 00:38:46;;;;;;;45.47;15.30;;;;;;;-144.18;100.00;69644.63;31203322;28;20054;-76
2022/11/29 00:53:47;;;;;;;48.73;15.27;;;;;;;-144.18;100.00;69644.63;31213039;28;20062;-74
2022/11/29 01:08:49;;;;;;;48.87;13.83;;;;;;;-144.18;100.00;69644.63;31192186;28;20049;-75
2022/11/29 01:23:52;;;;;;;50.77;14.60;;;;;;;-144.18;100.00;69644.63;31206273;28;20060;-74
2022/11/29 01:38:55;;;;;;;48.37;14.13;;;;;;;-144.18;100.00;69644.63;31196924;28;20104;-75
2022/11/29 01:53:57;;;;;;;41.20;13.23;;;;;;;-144.18;100.00;69644.63;31188398;28;20097;-74
2022/11/29 02:08:59;;;;;;;38.57;12.33;;;;;;;-144.18;100.00;69644.63;31196877;28;20068;-76
2022/11/29 02:24:22;;;;;;;31.30;10.53;;;;;;;-144.18;100.00;69644.63;31238443;28;20099;-74
2022/11/29 02:39:50;;;;;;;38.00;12.30;;;;;;;-144.18;100.00;69644.63;31225980;28;20158;-74
2022/11/29 02:55:05;;;;;;;48.53;13.40;;;;;;;-144.18;100.00;69644.63;31221482;28;20053;-75
2022/11/29 03:10:34;;;;;;;33.33;11.73;;;;;;;-144.18;100.00;69644.63;31211959;28;20053;-75
2022/11/29 03:25:48;;;;;;;47.70;14.70;;;;;;;-144.18;100.00;69644.63;31226076;28;20550;-75
2022/11/29 03:41:00;;;;;;;51.90;14.17;;;;;;;-144.18;100.00;69644.63;31215339;28;20053;-75
2022/11/29 03:56:21;;;;;;;52.83;17.17;;;;;;;-144.18;100.00;69644.63;31229809;28;20484;-75
2022/11/29 04:11:54;;;;;;;62.03;16.90;;;;;;;-144.18;100.00;69644.63;31210195;28;20061;-72
2022/11/29 04:27:33;;;;;;;67.17;17.77;;;;;;;-144.18;100.00;69644.63;31219096;28;20061;-70
2022/11/29 04:42:43;;;;;;;46.37;14.87;;;;;;;-144.18;100.00;69644.63;31194827;28;20049;-71
2022/11/29 04:57:57;;;;;;;39.00;12.97;;;;;;;-144.18;100.00;69644.63;31209204;28;20057;-71
2022/11/29 05:13:08;;;;;;;58.03;14.00;;;;;;;-144.18;100.00;69644.63;31185293;28;20053;-71
2022/11/29 05:28:29;;;;;;;88.33;22.53;;;;;;;-144.18;100.00;69644.63;31209380;28;20089;-75
2022/11/29 05:43:50;;;;;;;36.60;12.03;;;;;;;-144.18;100.00;69644.63;31220063;28;20049;-76
2022/11/29 05:59:00;;;;;;;45.77;14.03;;;;;;;-144.18;100.00;69644.63;31223410;28;20403;-74
2022/11/29 06:14:23;;;;;;;55.93;14.47;;;;;;;-144.18;100.00;69644.63;31227444;28;20053;-75
2022/11/29 06:29:33;;;;;;;41.90;13.37;;;;;;;-144.18;100.00;69644.63;31171704;28;20976;-76
2022/11/29 06:44:36;;;;;;;42.27;12.80;;;;;;;-144.18;100.00;69644.63;31237373;28;20053;-76
2022/11/29 07:00:02;;;;;;;52.33;14.70;;;;;;;-144.18;100.00;69644.63;31215156;28;20462;-76
2022/11/29 07:15:05;;;;;;;82.20;19.73;;;;;;;-144.18;100.00;69644.63;31216555;28;20061;-75
2022/11/29 07:30:26;;;;;;;50.60;16.23;;;;;;;-144.18;100.00;69644.63;31189203;28;20058;-75
2022/11/29 07:45:35;;;;;;;22.63;8.20;;;;;;;-144.18;100.00;69644.63;31218857;28;20045;-76
2022/11/29 08:00:38;;;;;;;34.30;8.77;;;;;;;-144.18;100.00;69644.63;31217817;28;20567;-73
2022/11/29 08:15:45;;;;;;;18.43;6.10;;;;;;;-144.18;100.00;69644.63;31188161;28;20057;-76
2022/11/29 08:30:47;;;;;;;32.37;14.50;;;;;;;-144.18;100.00;69644.63;31207446;28;20438;-75
2022/11/29 08:45:51;;;;;;;19.77;5.40;;;;;;;-144.18;100.00;69644.63;31221759;28;20045;-77
2022/11/29 09:00:53;;;;;;;19.40;4.90;;;;;;;-144.18;100.00;69644.63;31208275;28;20077;-76
2022/11/29 09:15:56;;;;;;;11.13;3.13;;;;;;;-144.18;100.00;69644.63;31199835;28;20083;-80
2022/11/29 09:31:26;;;;;;;7.80;3.87;;;;;;;-144.18;100.00;69644.63;31242620;28;20842;-76
2022/11/29 09:47:13;;;;;;;19.47;5.50;;;;;;;-144.18;100.00;69644.63;31244883;28;20545;-81
2022/11/29 10:02:28;;;;;;;18.73;5.23;;;;;;;-144.18;100.00;69644.63;31214437;28;20415;-78
2022/11/29 10:17:55;;;;;;;15.30;5.33;;;;;;;-144.18;100.00;69644.63;31247359;28;20092;-82
2022/11/29 10:32:59;;;;;;;13.47;5.40;;;;;;;-144.18;100.00;69644.63;31247142;28;20943;-86
2022/11/29 10:48:12;;;;;;;6.83;3.50;;;;;;;-144.18;100.00;69644.63;31296365;28;20077;-83
2022/11/29 11:03:28;;;;;;;19.57;7.43;;;;;;;-144.18;100.00;69644.63;31264415;28;20125;-82
2022/11/29 11:18:30;;;;;;;10.43;4.30;;;;;;;-144.18;100.00;69644.63;31251232;28;20104;-79
2022/11/29 11:33:36;;;;;;;16.07;5.57;;;;;;;-144.18;100.00;69644.63;31225424;28;20045;-73
2022/11/29 11:48:39;;;;;;;9.30;3.90;;;;;;;-144.18;100.00;69644.63;31210065;28;20107;-73
2022/11/29 12:03:48;;;;;;;13.23;5.17;;;;;;;-144.18;100.00;69644.63;31197510;28;20048;-81
2022/11/29 12:19:16;;;;;;;13.40;3.90;;;;;;;-144.18;100.00;69644.63;31232569;28;20057;-84
2022/11/29 12:34:27;;;;;;;16.83;4.90;;;;;;;-144.18;100.00;69644.63;31266461;28;20042;-87
2022/11/29 12:49:42;;;;;;;16.47;4.27;;;;;;;-144.18;100.00;69644.63;31267100;28;20136;-78
2022/11/29 13:04:53;;;;;;;10.50;4.97;;;;;;;-144.18;100.00;69644.63;31251303;28;20045;-81
2022/11/29 13:20:12;;;;;;;15.20;5.72;;;;;;;-144.18;100.00;69644.63;31228741;28;20082;-84
2022/11/29 13:35:49;;;;;;;19.17;5.80;;;;;;;-144.18;100.00;69644.63;31222856;28;20483;-83
2022/11/29 13:50:51;;;;;;;9.90;3.90;;;;;;;-144.18;100.00;69644.63;31192919;28;20057;-77
2022/11/29 14:06:12;;;;;;;21.83;3.83;;;;;;;-144.18;100.00;69644.63;31228310;28;20189;-76
2022/11/29 14:21:14;;;;;;;18.13;5.10;;;;;;;-144.18;100.00;69644.63;31223738;28;20446;-77
2022/11/29 14:36:36;;;;;;;8.77;4.90;;;;;;;-144.18;100.00;69644.63;31258931;28;20057;-77
2022/11/29 14:51:58;;;;;;;11.23;3.67;;;;;;;-144.18;100.00;69644.63;31202462;28;20049;-77
2022/11/29 15:07:04;;;;;;;16.13;5.27;;;;;;;-144.18;100.00;69644.63;31256302;28;20060;-77
2022/11/29 15:22:52;;;;;;;23.63;5.97;;;;;;;-144.18;100.00;69644.63;31210775;28;20053;-79
2022/11/29 15:37:57;;;;;;;12.95;5.55;;;;;;;-144.18;100.00;69644.63;31217533;28;20064;-79
2022/11/29 15:53:05;;;;;;;7.87;3.30;;;;;;;-144.18;100.00;69644.63;31229801;28;20054;-77
2022/11/29 16:08:14;;;;;;;11.70;4.17;;;;;;;-144.18;100.00;69644.63;31205135;28;20115;-76
2022/11/29 16:23:16;;;;;;;15.00;3.63;;;;;;;-144.18;100.00;69644.63;31229359;28;20087;-76
2022/11/29 16:38:24;;;;;;;15.73;3.90;;;;;;;-144.18;100.00;69644.63;31219659;28;20053;-81
2022/11/29 16:53:35;;;;;;;10.53;4.57;;;;;;;-144.18;100.00;69644.63;31255022;28;20061;-76
2022/11/29 17:09:02;;;;;;;9.23;3.07;;;;;;;-144.18;100.00;69644.63;31281486;28;20132;-81
2022/11/29 17:24:07;;;;;;;8.67;3.33;;;;;;;-144.18;100.00;69644.63;31293586;28;20068;-81
2022/11/29 17:39:14;;;;;;;17.10;5.63;;;;;;;-144.18;100.00;69644.63;31238044;28;20452;-81
2022/11/29 17:54:16;;;;;;;15.93;3.73;;;;;;;-144.18;100.00;69644.63;31228981;28;20484;-75
2022/11/29 18:09:18;;;;;;;27.77;9.33;;;;;;;-144.18;100.00;69644.63;31208139;28;20382;-77
2022/11/29 18:24:20;;;;;;;15.67;5.47;;;;;;;-144.18;100.00;69644.63;31234885;28;20053;-76
2022/11/29 18:39:23;;;;;;;21.47;5.03;;;;;;;-144.18;100.00;69644.63;31231718;28;20131;-75
2022/11/29 18:54:25;;;;;;;11.13;5.90;;;;;;;-144.18;100.00;69644.63;31210168;28;20100;-75
2022/11/29 19:09:27;;;;;;;10.73;4.73;;;;;;;-144.18;100.00;69644.63;31233529;28;20111;-75
2022/11/29 19:24:29;;;;;;;15.73;4.13;;;;;;;-144.18;100.00;69644.63;31238523;28;20049;-76
2022/11/29 19:39:32;;;;;;;19.00;5.97;;;;;;;-144.18;100.00;69644.63;31237851;28;20072;-76
2022/11/29 19:54:34;;;;;;;14.03;5.63;;;;;;;-144.18;100.00;69644.63;31228991;28;20079;-77
2022/11/29 20:09:36;;;;;;;13.43;6.30;;;;;;;-144.18;100.00;69644.63;31197774;28;20057;-75
2022/11/29 20:24:38;;;;;;;26.73;6.60;;;;;;;-144.18;100.00;69644.63;31208749;28;20085;-76
2022/11/29 20:40:07;;;;;;;16.23;6.60;;;;;;;-144.18;100.00;69644.63;31180734;28;20057;-77
2022/11/29 20:55:09;;;;;;;13.73;5.00;;;;;;;-144.18;100.00;69644.63;31184358;28;20041;-75
2022/11/29 21:10:12;;;;;;;8.60;3.87;;;;;;;-144.18;100.00;69644.63;31166164;28;20053;-76
2022/11/29 21:25:37;;;;;;;12.37;4.73;;;;;;;-144.18;100.00;69644.63;31222631;28;20057;-75
2022/11/29 21:40:39;;;;;;;15.07;4.97;;;;;;;-144.18;100.00;69644.63;31234819;28;20462;-78
2022/11/29 21:55:41;;;;;;;19.63;4.93;;;;;;;-144.18;100.00;69644.63;31243827;28;20108;-76
2022/11/29 22:10:43;;;;;;;12.13;4.33;;;;;;;-144.18;100.00;69644.63;31232460;28;20053;-76
2022/11/29 22:25:44;;;;;;;8.17;3.87;;;;;;;-144.18;100.00;69644.63;31225607;28;20060;-75
2022/11/29 22:40:46;;;;;;;7.27;3.17;;;;;;;-144.18;100.00;69644.63;31201449;28;20091;-75
2022/11/29 22:55:48;;;;;;;12.90;4.33;;;;;;;-144.18;100.00;69644.63;31171375;28;20053;-76
2022/11/29 23:10:55;;;;;;;12.10;5.10;;;;;;;-144.18;100.00;69644.63;31164033;28;20054;-75
2022/11/29 23:25:58;;;;;;;20.23;7.70;;;;;;;-144.18;100.00;69644.63;31171118;28;20073;-71
2022/11/29 23:41:00;;;;;;;21.50;5.43;;;;;;;-144.18;100.00;69644.63;31181970;28;20507;-71
2022/11/29 23:56:05;;;;;;;8.47;3.87;;;;;;;-144.18;100.00;69644.63;31195931;28;20045;-72
